sensor_id;sensor_type;location;lat;lon;timestamp;pressure;altitude;pressure_sealevel;temperature;humidity
30967;BME280;17649;51.836;8.330;2022-10-04T00:00:24;101863.06;;;9.88;nan
30967;BME280;17649;51.836;8.330;2022-10-04T00:03:33;101859.41;;;9.94;nan
30967;BME280;17649;51.836;8.330;2022-10-04T00:06:35;101854.28;;;9.92;nan
30967;BME280;17649;51.836;8.330;2022-10-04T00:09:42;101858.47;;;9.96;nan
30967;BME280;17649;51.836;8.330;2022-10-04T00:12:49;101859.25;;;10.00;nan
30967;BME280;17649;51.836;8.330;2022-10-04T00:15:50;101853.28;;;9.96;nan
30967;BME280;17649;51.836;8.330;2022-10-04T00:19:00;101851.47;;;10.00;nan
30967;BME280;17649;51.836;8.330;2022-10-04T00:37:31;101857.69;;;9.94;nan
30967;BME280;17649;51.836;8.330;2022-10-04T00:41:22;101851.66;;;9.94;nan
30967;BME280;17649;51.836;8.330;2022-10-04T00:44:21;101852.44;;;9.96;nan
30967;BME280;17649;51.836;8.330;2022-10-04T00:50:45;101846.88;;;10.08;nan
30967;BME280;17649;51.836;8.330;2022-10-04T00:53:55;101841.97;;;10.00;nan
30967;BME280;17649;51.836;8.330;2022-10-04T00:57:06;101841.94;;;10.02;nan
30967;BME280;17649;51.836;8.330;2022-10-04T01:00:18;101837.88;;;9.93;nan
30967;BME280;17649;51.836;8.330;2022-10-04T01:03:31;101835.41;;;9.90;nan
30967;BME280;17649;51.836;8.330;2022-10-04T01:06:36;101830.41;;;9.85;nan
30967;BME280;17649;51.836;8.330;2022-10-04T01:09:42;101830.94;;;9.95;nan
30967;BME280;17649;51.836;8.330;2022-10-04T01:16:02;101816.63;;;9.85;nan
30967;BME280;17649;51.836;8.330;2022-10-04T01:25:41;101813.53;;;10.00;nan
30967;BME280;17649;51.836;8.330;2022-10-04T01:28:43;101798.88;;;10.01;nan
30967;BME280;17649;51.836;8.330;2022-10-04T01:31:46;101794.53;;;10.01;nan
30967;BME280;17649;51.836;8.330;2022-10-04T01:34:47;101784.31;;;9.98;nan
30967;BME280;17649;51.836;8.330;2022-10-04T01:37:49;101781.75;;;9.97;nan
30967;BME280;17649;51.836;8.330;2022-10-04T01:40:52;101786.88;;;9.98;nan
30967;BME280;17649;51.836;8.330;2022-10-04T01:43:57;101778.53;;;9.90;nan
30967;BME280;17649;51.836;8.330;2022-10-04T01:47:00;101777.97;;;9.82;nan
30967;BME280;17649;51.836;8.330;2022-10-04T01:50:05;101774.47;;;9.83;nan
30967;BME280;17649;51.836;8.330;2022-10-04T01:53:17;101773.63;;;9.82;nan
30967;BME280;17649;51.836;8.330;2022-10-04T01:56:24;101762.47;;;9.82;nan
30967;BME280;17649;51.836;8.330;2022-10-04T01:59:29;101766.66;;;9.84;nan
30967;BME280;17649;51.836;8.330;2022-10-04T02:05:37;101761.81;;;9.75;nan
30967;BME280;17649;51.836;8.330;2022-10-04T02:08:43;101756.78;;;9.71;nan
30967;BME280;17649;51.836;8.330;2022-10-04T02:11:47;101762.19;;;9.63;nan
30967;BME280;17649;51.836;8.330;2022-10-04T02:14:52;101762.41;;;9.57;nan
30967;BME280;17649;51.836;8.330;2022-10-04T02:17:55;101773.69;;;9.54;nan
30967;BME280;17649;51.836;8.330;2022-10-04T02:20:57;101769.44;;;9.52;nan
30967;BME280;17649;51.836;8.330;2022-10-04T02:24:00;101773.78;;;9.51;nan
30967;BME280;17649;51.836;8.330;2022-10-04T02:27:01;101774.53;;;9.55;nan
30967;BME280;17649;51.836;8.330;2022-10-04T02:30:03;101760.72;;;9.56;nan
30967;BME280;17649;51.836;8.330;2022-10-04T02:33:05;101749.72;;;9.49;nan
30967;BME280;17649;51.836;8.330;2022-10-04T02:36:08;101743.47;;;9.56;nan
30967;BME280;17649;51.836;8.330;2022-10-04T02:39:44;101740.72;;;9.61;nan
30967;BME280;17649;51.836;8.330;2022-10-04T02:45:54;101742.88;;;9.75;nan
30967;BME280;17649;51.836;8.330;2022-10-04T02:49:00;101736.84;;;9.74;nan
30967;BME280;17649;51.836;8.330;2022-10-04T02:52:05;101729.81;;;9.78;nan
30967;BME280;17649;51.836;8.330;2022-10-04T02:55:22;101735.91;;;9.77;nan
30967;BME280;17649;51.836;8.330;2022-10-04T02:58:27;101734.16;;;9.77;nan
30967;BME280;17649;51.836;8.330;2022-10-04T03:04:41;101737.81;;;9.72;nan
30967;BME280;17649;51.836;8.330;2022-10-04T03:07:43;101734.44;;;9.70;nan
30967;BME280;17649;51.836;8.330;2022-10-04T03:10:44;101733.72;;;9.65;nan
30967;BME280;17649;51.836;8.330;2022-10-04T03:13:48;101729.50;;;9.62;nan
30967;BME280;17649;51.836;8.330;2022-10-04T03:16:52;101724.50;;;9.57;nan
30967;BME280;17649;51.836;8.330;2022-10-04T03:19:56;101728.09;;;9.53;nan
30967;BME280;17649;51.836;8.330;2022-10-04T03:22:59;101734.16;;;9.51;nan
30967;BME280;17649;51.836;8.330;2022-10-04T03:29:22;101727.03;;;9.33;nan
30967;BME280;17649;51.836;8.330;2022-10-04T03:32:24;101730.00;;;9.20;nan
30967;BME280;17649;51.836;8.330;2022-10-04T03:35:34;101729.41;;;9.12;nan
30967;BME280;17649;51.836;8.330;2022-10-04T03:38:38;101726.22;;;9.04;nan
30967;BME280;17649;51.836;8.330;2022-10-04T03:41:41;101722.19;;;8.95;nan
30967;BME280;17649;51.836;8.330;2022-10-04T03:44:47;101719.47;;;9.00;nan
30967;BME280;17649;51.836;8.330;2022-10-04T03:47:49;101721.34;;;8.95;nan
30967;BME280;17649;51.836;8.330;2022-10-04T03:50:52;101718.00;;;8.91;nan
30967;BME280;17649;51.836;8.330;2022-10-04T03:53:56;101719.66;;;8.94;nan
30967;BME280;17649;51.836;8.330;2022-10-04T03:56:57;101723.78;;;9.00;nan
30967;BME280;17649;51.836;8.330;2022-10-04T03:59:58;101719.41;;;9.02;nan
30967;BME280;17649;51.836;8.330;2022-10-04T04:03:02;101717.63;;;9.04;nan
30967;BME280;17649;51.836;8.330;2022-10-04T04:06:05;101710.53;;;9.10;nan
30967;BME280;17649;51.836;8.330;2022-10-04T04:09:14;101713.66;;;9.20;nan
30967;BME280;17649;51.836;8.330;2022-10-04T04:12:19;101701.31;;;9.30;nan
30967;BME280;17649;51.836;8.330;2022-10-04T04:15:22;101693.41;;;9.34;nan
30967;BME280;17649;51.836;8.330;2022-10-04T04:18:34;101678.84;;;9.32;nan
30967;BME280;17649;51.836;8.330;2022-10-04T04:21:38;101671.78;;;9.37;nan
30967;BME280;17649;51.836;8.330;2022-10-04T04:24:41;101671.72;;;9.40;nan
30967;BME280;17649;51.836;8.330;2022-10-04T04:27:55;101679.59;;;9.35;nan
30967;BME280;17649;51.836;8.330;2022-10-04T04:31:01;101689.88;;;9.37;nan
30967;BME280;17649;51.836;8.330;2022-10-04T04:34:14;101682.03;;;9.40;nan
30967;BME280;17649;51.836;8.330;2022-10-04T04:37:15;101689.31;;;9.53;nan
30967;BME280;17649;51.836;8.330;2022-10-04T04:43:18;101692.66;;;9.57;nan
30967;BME280;17649;51.836;8.330;2022-10-04T04:46:20;101691.06;;;9.53;nan
30967;BME280;17649;51.836;8.330;2022-10-04T04:49:22;101684.06;;;9.56;nan
30967;BME280;17649;51.836;8.330;2022-10-04T04:52:26;101687.59;;;9.54;nan
30967;BME280;17649;51.836;8.330;2022-10-04T04:55:33;101672.28;;;9.48;nan
30967;BME280;17649;51.836;8.330;2022-10-04T04:58:37;101680.81;;;9.50;nan
30967;BME280;17649;51.836;8.330;2022-10-04T05:01:43;101669.81;;;9.45;nan
30967;BME280;17649;51.836;8.330;2022-10-04T05:04:47;101670.88;;;9.39;nan
30967;BME280;17649;51.836;8.330;2022-10-04T05:08:02;101671.72;;;9.40;nan
30967;BME280;17649;51.836;8.330;2022-10-04T05:14:10;101678.69;;;9.36;nan
30967;BME280;17649;51.836;8.330;2022-10-04T05:17:20;101676.31;;;9.30;nan
30967;BME280;17649;51.836;8.330;2022-10-04T05:20:22;101668.69;;;9.27;nan
30967;BME280;17649;51.836;8.330;2022-10-04T05:23:26;101674.03;;;9.21;nan
30967;BME280;17649;51.836;8.330;2022-10-04T05:26:28;101664.59;;;9.20;nan
30967;BME280;17649;51.836;8.330;2022-10-04T05:29:35;101675.97;;;9.14;nan
30967;BME280;17649;51.836;8.330;2022-10-04T05:39:32;101675.25;;;9.11;nan
30967;BME280;17649;51.836;8.330;2022-10-04T05:42:36;101676.09;;;9.11;nan
30967;BME280;17649;51.836;8.330;2022-10-04T05:45:48;101676.09;;;9.11;nan
30967;BME280;17649;51.836;8.330;2022-10-04T05:49:10;101678.78;;;9.08;nan
30967;BME280;17649;51.836;8.330;2022-10-04T05:55:33;101673.28;;;9.17;nan
30967;BME280;17649;51.836;8.330;2022-10-04T05:58:44;101666.53;;;9.13;nan
30967;BME280;17649;51.836;8.330;2022-10-04T06:02:02;101663.06;;;9.14;nan
30967;BME280;17649;51.836;8.330;2022-10-04T06:08:21;101666.50;;;9.15;nan
30967;BME280;17649;51.836;8.330;2022-10-04T06:27:53;101692.38;;;9.40;nan
30967;BME280;17649;51.836;8.330;2022-10-04T06:30:23;101688.88;;;9.41;nan
30967;BME280;17649;51.836;8.330;2022-10-04T06:36:36;101696.25;;;9.51;nan
30967;BME280;17649;51.836;8.330;2022-10-04T06:42:48;101688.28;;;9.59;nan
30967;BME280;17649;51.836;8.330;2022-10-04T06:45:58;101681.13;;;9.66;nan
30967;BME280;17649;51.836;8.330;2022-10-04T06:49:05;101676.78;;;9.68;nan
30967;BME280;17649;51.836;8.330;2022-10-04T06:55:30;101677.47;;;9.73;nan
30967;BME280;17649;51.836;8.330;2022-10-04T07:01:49;101678.72;;;9.86;nan
30967;BME280;17649;51.836;8.330;2022-10-04T07:05:02;101672.66;;;9.87;nan
30967;BME280;17649;51.836;8.330;2022-10-04T07:08:13;101669.91;;;9.92;nan
30967;BME280;17649;51.836;8.330;2022-10-04T07:11:31;101668.88;;;9.96;nan
30967;BME280;17649;51.836;8.330;2022-10-04T07:14:37;101667.13;;;9.96;nan
30967;BME280;17649;51.836;8.330;2022-10-04T07:17:44;101673.63;;;10.08;nan
30967;BME280;17649;51.836;8.330;2022-10-04T07:20:47;101674.06;;;10.19;nan
30967;BME280;17649;51.836;8.330;2022-10-04T07:23:51;101679.03;;;10.25;nan
30967;BME280;17649;51.836;8.330;2022-10-04T07:26:53;101682.31;;;10.30;nan
30967;BME280;17649;51.836;8.330;2022-10-04T07:29:55;101681.81;;;10.44;nan
30967;BME280;17649;51.836;8.330;2022-10-04T07:32:57;101669.53;;;10.49;nan
30967;BME280;17649;51.836;8.330;2022-10-04T07:36:02;101671.53;;;10.64;nan
30967;BME280;17649;51.836;8.330;2022-10-04T07:39:11;101679.59;;;10.79;nan
30967;BME280;17649;51.836;8.330;2022-10-04T07:45:18;101680.69;;;10.95;nan
30967;BME280;17649;51.836;8.330;2022-10-04T07:48:22;101686.59;;;10.98;nan
30967;BME280;17649;51.836;8.330;2022-10-04T07:51:39;101679.59;;;11.22;nan
30967;BME280;17649;51.836;8.330;2022-10-04T07:54:50;101682.31;;;11.40;nan
30967;BME280;17649;51.836;8.330;2022-10-04T08:01:32;101684.13;;;11.58;nan
30967;BME280;17649;51.836;8.330;2022-10-04T08:20:58;101681.44;;;12.58;nan
30967;BME280;17649;51.836;8.330;2022-10-04T08:27:08;101673.69;;;12.75;nan
30967;BME280;17649;51.836;8.330;2022-10-04T08:30:19;101675.16;;;12.62;nan
30967;BME280;17649;51.836;8.330;2022-10-04T08:56:23;101647.06;;;13.06;nan
30967;BME280;17649;51.836;8.330;2022-10-04T09:05:55;101649.88;;;13.21;nan
30967;BME280;17649;51.836;8.330;2022-10-04T09:21:48;101631.22;;;13.80;nan
30967;BME280;17649;51.836;8.330;2022-10-04T09:24:58;101634.25;;;13.88;nan
30967;BME280;17649;51.836;8.330;2022-10-04T09:31:25;101623.13;;;14.02;nan
30967;BME280;17649;51.836;8.330;2022-10-04T09:38:07;101606.50;;;14.36;nan
30967;BME280;17649;51.836;8.330;2022-10-04T09:44:43;101590.69;;;14.71;nan
30967;BME280;17649;51.836;8.330;2022-10-04T09:54:54;101573.75;;;14.94;nan
30967;BME280;17649;51.836;8.330;2022-10-04T09:58:30;101574.06;;;15.17;nan
30967;BME280;17649;51.836;8.330;2022-10-04T10:01:39;101564.94;;;15.10;nan
30967;BME280;17649;51.836;8.330;2022-10-04T10:08:25;101560.78;;;15.22;nan
30967;BME280;17649;51.836;8.330;2022-10-04T10:18:24;101558.75;;;15.70;nan
30967;BME280;17649;51.836;8.330;2022-10-04T10:24:41;101538.91;;;15.82;nan
30967;BME280;17649;51.836;8.330;2022-10-04T10:47:32;101511.09;;;17.14;nan
30967;BME280;17649;51.836;8.330;2022-10-04T10:50:46;101517.44;;;17.61;nan
30967;BME280;17649;51.836;8.330;2022-10-04T10:57:16;101511.66;;;17.68;nan
30967;BME280;17649;51.836;8.330;2022-10-04T11:32:49;101461.53;;;21.47;nan
30967;BME280;17649;51.836;8.330;2022-10-04T11:36:11;101460.16;;;21.43;nan
30967;BME280;17649;51.836;8.330;2022-10-04T11:39:35;101464.63;;;21.81;nan
30967;BME280;17649;51.836;8.330;2022-10-04T12:11:51;101426.59;;;22.61;nan
30967;BME280;17649;51.836;8.330;2022-10-04T12:15:30;101418.34;;;21.88;nan
30967;BME280;17649;51.836;8.330;2022-10-04T12:25:13;101412.47;;;23.54;nan
30967;BME280;17649;51.836;8.330;2022-10-04T12:51:07;101375.88;;;24.38;nan
30967;BME280;17649;51.836;8.330;2022-10-04T12:54:17;101373.00;;;25.42;nan
30967;BME280;17649;51.836;8.330;2022-10-04T13:00:38;101364.75;;;23.56;nan
30967;BME280;17649;51.836;8.330;2022-10-04T13:22:26;101337.97;;;25.89;nan
30967;BME280;17649;51.836;8.330;2022-10-04T13:31:48;101325.81;;;25.38;nan
30967;BME280;17649;51.836;8.330;2022-10-04T13:41:17;101320.72;;;24.94;nan
30967;BME280;17649;51.836;8.330;2022-10-04T13:51:43;101299.34;;;24.71;nan
30967;BME280;17649;51.836;8.330;2022-10-04T13:54:34;101298.88;;;25.75;nan
30967;BME280;17649;51.836;8.330;2022-10-04T14:23:42;101271.63;;;27.23;nan
30967;BME280;17649;51.836;8.330;2022-10-04T14:33:13;101276.75;;;23.02;nan
30967;BME280;17649;51.836;8.330;2022-10-04T15:11:19;101267.91;;;20.03;nan
30967;BME280;17649;51.836;8.330;2022-10-04T15:14:39;101248.63;;;20.14;nan
30967;BME280;17649;51.836;8.330;2022-10-04T15:17:42;101256.84;;;20.00;nan
30967;BME280;17649;51.836;8.330;2022-10-04T15:21:03;101247.22;;;20.10;nan
30967;BME280;17649;51.836;8.330;2022-10-04T16:04:58;101261.34;;;19.67;nan
30967;BME280;17649;51.836;8.330;2022-10-04T18:25:41;101353.28;;;13.42;nan
30967;BME280;17649;51.836;8.330;2022-10-04T18:39:18;101365.16;;;13.15;nan
30967;BME280;17649;51.836;8.330;2022-10-04T18:42:39;101365.41;;;13.10;nan
30967;BME280;17649;51.836;8.330;2022-10-04T18:50:00;101374.53;;;13.02;nan
30967;BME280;17649;51.836;8.330;2022-10-04T19:07:41;101377.47;;;12.78;nan
30967;BME280;17649;51.836;8.330;2022-10-04T19:15:27;101371.94;;;12.69;nan
30967;BME280;17649;51.836;8.330;2022-10-04T19:22:00;101380.44;;;12.55;nan
30967;BME280;17649;51.836;8.330;2022-10-04T19:28:33;101396.47;;;12.46;nan
30967;BME280;17649;51.836;8.330;2022-10-04T19:39:02;101387.53;;;12.34;nan
30967;BME280;17649;51.836;8.330;2022-10-04T19:49:02;101381.97;;;12.24;nan
30967;BME280;17649;51.836;8.330;2022-10-04T19:52:13;101366.63;;;12.20;nan
30967;BME280;17649;51.836;8.330;2022-10-04T19:55:20;101357.31;;;12.16;nan
30967;BME280;17649;51.836;8.330;2022-10-04T19:58:41;101361.75;;;12.14;nan
30967;BME280;17649;51.836;8.330;2022-10-04T20:01:44;101375.88;;;12.08;nan
30967;BME280;17649;51.836;8.330;2022-10-04T20:04:45;101369.94;;;12.06;nan
30967;BME280;17649;51.836;8.330;2022-10-04T20:07:48;101383.03;;;12.03;nan
30967;BME280;17649;51.836;8.330;2022-10-04T20:10:49;101373.81;;;11.98;nan
30967;BME280;17649;51.836;8.330;2022-10-04T20:17:02;101372.44;;;11.90;nan
30967;BME280;17649;51.836;8.330;2022-10-04T20:20:03;101364.84;;;11.86;nan
30967;BME280;17649;51.836;8.330;2022-10-04T20:23:04;101373.63;;;11.83;nan
30967;BME280;17649;51.836;8.330;2022-10-04T20:26:07;101383.31;;;11.80;nan
30967;BME280;17649;51.836;8.330;2022-10-04T20:29:07;101381.56;;;11.80;nan
30967;BME280;17649;51.836;8.330;2022-10-04T20:35:08;101386.16;;;11.74;nan
30967;BME280;17649;51.836;8.330;2022-10-04T20:38:12;101393.94;;;11.74;nan
30967;BME280;17649;51.836;8.330;2022-10-04T20:44:39;101383.38;;;11.59;nan
30967;BME280;17649;51.836;8.330;2022-10-04T20:47:44;101379.34;;;11.54;nan
30967;BME280;17649;51.836;8.330;2022-10-04T20:50:45;101374.44;;;11.48;nan
30967;BME280;17649;51.836;8.330;2022-10-04T20:53:48;101371.13;;;11.44;nan
30967;BME280;17649;51.836;8.330;2022-10-04T20:56:51;101365.34;;;11.39;nan
30967;BME280;17649;51.836;8.330;2022-10-04T20:59:54;101360.31;;;11.36;nan
30967;BME280;17649;51.836;8.330;2022-10-04T21:03:08;101364.06;;;11.29;nan
30967;BME280;17649;51.836;8.330;2022-10-04T21:06:12;101366.88;;;11.24;nan
30967;BME280;17649;51.836;8.330;2022-10-04T21:09:12;101354.91;;;11.22;nan
30967;BME280;17649;51.836;8.330;2022-10-04T21:15:31;101357.72;;;11.17;nan
30967;BME280;17649;51.836;8.330;2022-10-04T21:18:31;101364.66;;;11.17;nan
30967;BME280;17649;51.836;8.330;2022-10-04T21:21:47;101364.69;;;11.15;nan
30967;BME280;17649;51.836;8.330;2022-10-04T21:27:48;101353.88;;;11.07;nan
30967;BME280;17649;51.836;8.330;2022-10-04T21:30:48;101350.59;;;11.03;nan
30967;BME280;17649;51.836;8.330;2022-10-04T21:33:48;101354.84;;;11.04;nan
30967;BME280;17649;51.836;8.330;2022-10-04T21:36:49;101349.81;;;11.01;nan
30967;BME280;17649;51.836;8.330;2022-10-04T21:39:49;101350.00;;;10.97;nan
30967;BME280;17649;51.836;8.330;2022-10-04T21:42:49;101350.22;;;10.92;nan
30967;BME280;17649;51.836;8.330;2022-10-04T21:45:49;101358.13;;;10.89;nan
30967;BME280;17649;51.836;8.330;2022-10-04T21:48:50;101359.16;;;10.85;nan
30967;BME280;17649;51.836;8.330;2022-10-04T21:51:50;101354.19;;;10.81;nan
30967;BME280;17649;51.836;8.330;2022-10-04T21:54:50;101359.16;;;10.85;nan
30967;BME280;17649;51.836;8.330;2022-10-04T21:57:50;101352.28;;;10.84;nan
30967;BME280;17649;51.836;8.330;2022-10-04T22:00:51;101352.22;;;10.86;nan
30967;BME280;17649;51.836;8.330;2022-10-04T22:03:51;101352.22;;;10.86;nan
30967;BME280;17649;51.836;8.330;2022-10-04T22:06:51;101352.22;;;10.86;nan
30967;BME280;17649;51.836;8.330;2022-10-04T22:09:52;101353.97;;;10.85;nan
30967;BME280;17649;51.836;8.330;2022-10-04T22:12:52;101350.75;;;10.80;nan
30967;BME280;17649;51.836;8.330;2022-10-04T22:15:55;101352.72;;;10.75;nan
30967;BME280;17649;51.836;8.330;2022-10-04T22:18:56;101364.09;;;10.71;nan
30967;BME280;17649;51.836;8.330;2022-10-04T22:21:56;101377.25;;;10.66;nan
30967;BME280;17649;51.836;8.330;2022-10-04T22:24:57;101371.38;;;10.63;nan
30967;BME280;17649;51.836;8.330;2022-10-04T22:27:57;101364.72;;;10.57;nan
30967;BME280;17649;51.836;8.330;2022-10-04T22:30:58;101368.25;;;10.55;nan
30967;BME280;17649;51.836;8.330;2022-10-04T22:33:59;101375.25;;;10.53;nan
30967;BME280;17649;51.836;8.330;2022-10-04T22:36:59;101365.03;;;10.50;nan
30967;BME280;17649;51.836;8.330;2022-10-04T22:40:01;101371.13;;;10.49;nan
30967;BME280;17649;51.836;8.330;2022-10-04T22:43:02;101361.75;;;10.46;nan
30967;BME280;17649;51.836;8.330;2022-10-04T22:46:03;101366.22;;;10.42;nan
30967;BME280;17649;51.836;8.330;2022-10-04T22:49:07;101357.66;;;10.40;nan
30967;BME280;17649;51.836;8.330;2022-10-04T22:52:16;101353.47;;;10.38;nan
30967;BME280;17649;51.836;8.330;2022-10-04T22:55:17;101358.69;;;10.36;nan
30967;BME280;17649;51.836;8.330;2022-10-04T22:58:17;101360.44;;;10.36;nan
30967;BME280;17649;51.836;8.330;2022-10-04T23:01:19;101338.06;;;10.35;nan
30967;BME280;17649;51.836;8.330;2022-10-04T23:04:21;101337.22;;;10.34;nan
30967;BME280;17649;51.836;8.330;2022-10-04T23:07:21;101346.53;;;10.38;nan
30967;BME280;17649;51.836;8.330;2022-10-04T23:10:22;101343.88;;;10.40;nan
30967;BME280;17649;51.836;8.330;2022-10-04T23:13:22;101344.84;;;10.37;nan
30967;BME280;17649;51.836;8.330;2022-10-04T23:16:23;101343.94;;;10.38;nan
30967;BME280;17649;51.836;8.330;2022-10-04T23:19:23;101353.28;;;10.42;nan
30967;BME280;17649;51.836;8.330;2022-10-04T23:22:25;101351.59;;;10.41;nan
30967;BME280;17649;51.836;8.330;2022-10-04T23:25:27;101353.22;;;10.44;nan
30967;BME280;17649;51.836;8.330;2022-10-04T23:28:27;101359.09;;;10.48;nan
30967;BME280;17649;51.836;8.330;2022-10-04T23:31:28;101367.50;;;10.53;nan
30967;BME280;17649;51.836;8.330;2022-10-04T23:34:33;101365.56;;;10.58;nan
30967;BME280;17649;51.836;8.330;2022-10-04T23:37:34;101367.81;;;10.65;nan
30967;BME280;17649;51.836;8.330;2022-10-04T23:40:34;101361.56;;;10.69;nan
30967;BME280;17649;51.836;8.330;2022-10-04T23:43:34;101366.44;;;10.77;nan
30967;BME280;17649;51.836;8.330;2022-10-04T23:46:35;101358.53;;;10.80;nan
30967;BME280;17649;51.836;8.330;2022-10-04T23:49:35;101364.22;;;10.88;nan
30967;BME280;17649;51.836;8.330;2022-10-04T23:52:36;101358.00;;;10.92;nan
30967;BME280;17649;51.836;8.330;2022-10-04T23:55:39;101360.28;;;10.98;nan
30967;BME280;17649;51.836;8.330;2022-10-04T23:58:40;101363.38;;;11.07;nan
